createdAt,value
2022-10-29T04:17:11.788Z,100708.31
2022-10-29T04:19:38.297Z,100707.00
2022-10-29T04:30:24.904Z,100699.38
2022-10-29T04:32:59.574Z,100684.47
2022-10-29T04:35:27.794Z,100684.31
2022-10-29T04:37:55.467Z,100681.72
2022-10-29T04:40:24.317Z,100670.13
2022-10-29T04:42:50.943Z,100670.94
2022-10-29T04:45:18.173Z,100682.69
2022-10-29T04:47:44.691Z,100679.88
2022-10-29T04:50:11.166Z,100684.13
2022-10-29T04:52:37.572Z,100687.59
2022-10-29T04:55:04.365Z,100681.25
2022-10-29T04:57:30.756Z,100676.84
2022-10-29T04:59:57.193Z,100688.81
2022-10-29T05:02:23.612Z,100688.53
2022-10-29T05:04:50.085Z,100696.44
2022-10-29T05:07:16.572Z,100697.22
2022-10-29T05:09:43.012Z,100696.81
2022-10-29T05:12:09.417Z,100686.97
2022-10-29T05:14:35.873Z,100683.50
2022-10-29T05:17:02.317Z,100674.59
2022-10-29T05:19:28.807Z,100673.94
2022-10-29T05:21:55.224Z,100673.81
2022-10-29T05:24:21.637Z,100677.25
2022-10-29T05:26:48.036Z,100673.97
2022-10-29T05:29:14.505Z,100681.13
2022-10-29T05:31:40.907Z,100676.56
2022-10-29T05:34:07.345Z,100680.78
2022-10-29T05:36:33.779Z,100674.53
2022-10-29T05:39:00.314Z,100678.00
2022-10-29T05:41:26.737Z,100682.47
2022-10-29T05:43:53.173Z,100685.19
2022-10-29T05:46:19.595Z,100682.63
2022-10-29T05:48:46.021Z,100675.50
2022-10-29T05:51:12.518Z,100672.09
2022-10-29T05:53:38.945Z,100674.66
2022-10-29T05:56:05.943Z,100685.00
2022-10-29T05:58:32.404Z,100678.72
2022-10-29T06:00:58.943Z,100677.16
2022-10-29T06:03:25.503Z,100678.81
2022-10-29T06:05:52.015Z,100674.38
2022-10-29T06:08:18.796Z,100681.75
2022-10-29T06:10:45.382Z,100673.16
2022-10-29T06:13:18.019Z,100681.56
2022-10-29T06:15:45.485Z,100684.09
2022-10-29T06:18:12.753Z,100690.22
2022-10-29T06:20:39.349Z,100685.63
2022-10-29T06:23:34.593Z,100682.16
2022-10-29T06:26:01.781Z,100687.34
2022-10-29T06:28:33.742Z,100682.91
2022-10-29T06:31:01.417Z,100682.78
2022-10-29T06:36:33.972Z,100691.47
2022-10-29T06:39:00.438Z,100692.53
2022-10-29T06:41:27.307Z,100695.38
2022-10-29T06:43:53.806Z,100683.56
2022-10-29T06:46:20.267Z,100687.88
2022-10-29T06:48:46.743Z,100693.88
2022-10-29T06:51:13.319Z,100697.19
2022-10-29T06:53:39.815Z,100694.38
2022-10-29T06:56:06.462Z,100691.59
2022-10-29T06:58:32.935Z,100697.66
2022-10-29T07:01:01.640Z,100703.06
2022-10-29T07:03:28.083Z,100707.09
2022-10-29T07:05:59.272Z,100699.94
2022-10-29T07:08:26.872Z,100710.34
2022-10-29T07:10:54.233Z,100702.38
2022-10-29T07:13:20.681Z,100702.19
2022-10-29T07:15:47.202Z,100702.16
2022-10-29T07:18:14.064Z,100703.03
2022-10-29T07:20:43.670Z,100698.59
2022-10-29T07:23:13.954Z,100700.13
2022-10-29T07:25:41.222Z,100701.00
2022-10-29T07:28:13.843Z,100713.09
2022-10-29T07:30:41.243Z,100704.13
2022-10-29T07:33:07.802Z,100708.59
2022-10-29T07:35:34.875Z,100706.59
2022-10-29T07:38:07.071Z,100702.66
2022-10-29T07:40:37.617Z,100710.28
2022-10-29T07:43:04.147Z,100719.28
2022-10-29T07:45:30.607Z,100720.53
2022-10-29T07:48:07.200Z,100722.84
2022-10-29T07:50:34.266Z,100725.19
2022-10-29T07:53:01.851Z,100709.88
2022-10-29T07:58:02.211Z,100715.44
2022-10-29T08:00:29.869Z,100715.91
2022-10-29T08:02:56.943Z,100720.91
2022-10-29T08:05:24.961Z,100716.25
2022-10-29T08:07:54.928Z,100720.16
2022-10-29T08:10:22.921Z,100716.28
2022-10-29T08:12:54.064Z,100712.44
2022-10-29T08:15:21.213Z,100717.59
2022-10-29T08:17:47.725Z,100722.78
2022-10-29T08:20:15.622Z,100722.53
2022-10-29T08:22:42.342Z,100710.97
2022-10-29T08:25:09.213Z,100716.28
2022-10-29T08:27:35.860Z,100715.03
2022-10-29T08:30:02.358Z,100724.56
2022-10-29T08:32:29.734Z,100716.66
2022-10-29T08:34:56.310Z,100714.94
2022-10-29T08:37:22.775Z,100718.88
2022-10-29T08:39:49.309Z,100712.09
2022-10-29T08:42:36.289Z,100714.72
2022-10-29T08:45:25.916Z,100711.59
2022-10-29T08:48:08.418Z,100706.72
2022-10-29T08:50:41.095Z,100708.28
2022-10-29T08:53:27.618Z,100715.09
2022-10-29T08:55:57.152Z,100715.59
2022-10-29T08:58:34.061Z,100719.72
2022-10-29T09:01:00.597Z,100727.13
2022-10-29T09:03:32.344Z,100716.81
2022-10-29T09:06:11.179Z,100719.97
2022-10-29T09:08:53.417Z,100706.38
2022-10-29T09:11:41.807Z,100717.22
2022-10-29T09:14:28.293Z,100721.91
2022-10-29T09:17:10.283Z,100718.00
2022-10-29T09:19:57.862Z,100720.53
2022-10-29T09:23:04.045Z,100712.81
2022-10-29T09:25:34.984Z,100722.63
2022-10-29T09:28:38.900Z,100716.31
2022-10-29T09:31:19.778Z,100713.59
2022-10-29T09:33:49.539Z,100715.25
2022-10-29T09:36:22.246Z,100714.47
2022-10-29T09:38:57.672Z,100717.97
2022-10-29T09:41:30.328Z,100715.19
2022-10-29T09:44:04.756Z,100714.91
2022-10-29T09:46:39.255Z,100717.63
2022-10-29T09:49:31.031Z,100707.50
2022-10-29T09:52:19.159Z,100712.03
2022-10-29T09:54:48.105Z,100704.50
2022-10-29T09:57:29.307Z,100695.03
2022-10-29T10:00:02.078Z,100700.44
2022-10-29T10:02:55.227Z,100698.09
2022-10-29T10:05:33.511Z,100708.06
2022-10-29T10:08:13.676Z,100698.97
2022-10-29T10:10:55.612Z,100695.97
2022-10-29T10:13:31.681Z,100687.34
2022-10-29T10:16:00.824Z,100683.47
2022-10-29T10:18:33.359Z,100689.28
2022-10-29T10:21:05.890Z,100686.50
2022-10-29T10:23:55.067Z,100682.81
2022-10-29T10:26:29.568Z,100687.13
2022-10-29T10:29:17.454Z,100687.75
2022-10-29T10:31:46.702Z,100690.28
2022-10-29T10:34:17.853Z,100681.22
2022-10-29T10:36:49.985Z,100683.56
2022-10-29T10:39:25.162Z,100674.59
2022-10-29T10:41:52.293Z,100667.13
2022-10-29T10:44:22.096Z,100663.41
2022-10-29T10:46:51.640Z,100666.16
2022-10-29T10:49:28.124Z,100652.78
2022-10-29T10:51:56.642Z,100659.47
2022-10-29T10:54:31.339Z,100647.97
2022-10-29T10:56:59.576Z,100650.09
2022-10-29T10:59:42.720Z,100640.97
2022-10-29T11:02:23.622Z,100647.97
2022-10-29T11:05:06.876Z,100649.53
2022-10-29T11:07:39.697Z,100639.19
2022-10-29T11:10:10.431Z,100638.16
2022-10-29T11:12:50.548Z,100634.91
2022-10-29T11:15:37.156Z,100629.44
2022-10-29T11:18:13.194Z,100626.56
2022-10-29T11:20:44.747Z,100627.19
2022-10-29T11:23:31.453Z,100623.34
2022-10-29T11:26:13.453Z,100621.06
2022-10-29T11:29:04.916Z,100614.84
2022-10-29T11:31:51.604Z,100614.16
2022-10-29T11:34:30.210Z,100620.81
2022-10-29T11:37:06.344Z,100615.75
2022-10-29T11:39:49.557Z,100616.72
2022-10-29T11:42:16.059Z,100609.81
2022-10-29T11:44:42.636Z,100603.50
2022-10-29T11:47:21.153Z,100599.03
2022-10-29T11:50:20.033Z,100597.13
2022-10-29T11:52:57.386Z,100595.09
2022-10-29T11:55:42.677Z,100599.28
2022-10-29T11:58:38.042Z,100591.66
2022-10-29T12:01:16.788Z,100584.34
2022-10-29T12:04:15.933Z,100586.00
2022-10-29T12:06:55.977Z,100591.63
2022-10-29T12:09:44.738Z,100585.72
2022-10-29T12:12:14.166Z,100575.78
2022-10-29T12:15:13.097Z,100579.56
2022-10-29T12:18:02.607Z,100578.56
2022-10-29T12:20:41.779Z,100579.25
2022-10-29T12:23:25.328Z,100567.44
2022-10-29T12:26:02.979Z,100566.06
2022-10-29T12:28:49.765Z,100570.72
2022-10-29T12:31:30.340Z,100561.50
2022-10-29T12:34:08.248Z,100561.44
2022-10-29T12:37:02.439Z,100549.06
2022-10-29T12:39:36.964Z,100551.00
2022-10-29T12:42:17.841Z,100550.09
2022-10-29T12:44:55.418Z,100545.22
2022-10-29T12:47:33.588Z,100548.28
2022-10-29T12:50:20.285Z,100554.56
2022-10-29T12:52:55.871Z,100547.50
2022-10-29T12:55:23.457Z,100541.03
2022-10-29T12:57:50.000Z,100540.38
2022-10-29T13:00:25.595Z,100539.31
2022-10-29T13:02:55.767Z,100536.63
2022-10-29T13:05:25.679Z,100534.09
2022-10-29T13:08:04.239Z,100526.16
2022-10-29T13:10:33.743Z,100530.06
2022-10-29T13:17:27.886Z,100521.13
2022-10-29T13:20:19.438Z,100517.69
2022-10-29T13:22:46.872Z,100520.97
2022-10-29T13:25:36.286Z,100510.38
2022-10-29T13:28:08.740Z,100506.72
2022-10-29T13:30:43.508Z,100506.00
2022-10-29T13:33:22.087Z,100504.94
2022-10-29T13:35:59.561Z,100502.94
2022-10-29T13:38:51.893Z,100499.59
2022-10-29T13:41:42.157Z,100503.00
2022-10-29T13:44:21.819Z,100509.59
2022-10-29T13:47:01.593Z,100504.47
2022-10-29T13:49:33.857Z,100509.69
2022-10-29T13:52:10.391Z,100501.22
2022-10-29T13:54:50.664Z,100503.78
2022-10-29T13:57:34.406Z,100497.69
2022-10-29T14:00:13.056Z,100485.06
2022-10-29T14:02:42.584Z,100488.66
2022-10-29T14:05:15.174Z,100487.72
2022-10-29T14:08:07.474Z,100492.41
2022-10-29T14:10:40.181Z,100490.53
2022-10-29T14:13:45.865Z,100483.88
2022-10-29T14:17:04.390Z,100486.59
2022-10-29T14:19:30.886Z,100478.81
2022-10-29T14:21:57.666Z,100480.53
2022-10-29T14:24:24.287Z,100476.94
2022-10-29T14:27:06.522Z,100475.78
2022-10-29T14:29:33.023Z,100474.53
2022-10-29T14:32:22.826Z,100479.38
2022-10-29T14:34:50.815Z,100480.59
2022-10-29T14:37:40.558Z,100481.38
2022-10-29T14:40:17.667Z,100482.28
2022-10-29T14:42:48.272Z,100492.19
2022-10-29T14:45:30.335Z,100484.38
2022-10-29T14:48:11.382Z,100494.66
2022-10-29T14:50:37.977Z,100488.78
2022-10-29T14:53:17.643Z,100494.19
2022-10-29T14:55:48.333Z,100486.28
2022-10-29T14:58:21.375Z,100490.28
2022-10-29T15:01:08.296Z,100488.19
2022-10-29T15:03:35.622Z,100486.28
2022-10-29T15:06:10.591Z,100482.78
2022-10-29T15:08:58.365Z,100485.44
2022-10-29T15:11:35.615Z,100484.41
2022-10-29T15:14:04.266Z,100488.22
2022-10-29T15:16:31.848Z,100485.94
2022-10-29T15:19:00.086Z,100485.19
2022-10-29T15:21:32.990Z,100487.00
2022-10-29T15:24:04.865Z,100486.53
2022-10-29T15:26:31.457Z,100500.75
2022-10-29T15:28:58.305Z,100497.28
2022-10-29T15:31:33.028Z,100487.66
2022-10-29T15:34:15.028Z,100488.81
2022-10-29T15:36:53.385Z,100492.22
2022-10-29T15:39:29.314Z,100483.56
2022-10-29T15:41:59.261Z,100481.84
2022-10-29T15:45:20.875Z,100477.63
2022-10-29T15:47:50.609Z,100473.50
2022-10-29T15:50:23.804Z,100467.00
2022-10-29T15:52:56.345Z,100464.31
2022-10-29T15:55:31.787Z,100463.22
2022-10-29T15:58:15.078Z,100471.34
2022-10-29T16:00:42.406Z,100472.47
2022-10-29T16:03:23.369Z,100474.22
2022-10-29T16:05:53.675Z,100476.91
2022-10-29T16:08:29.980Z,100466.28
2022-10-29T16:11:07.780Z,100467.97
2022-10-29T16:13:35.355Z,100469.88
2022-10-29T16:16:01.901Z,100467.13
2022-10-29T16:18:28.363Z,100465.94
2022-10-29T16:21:00.550Z,100464.28
2022-10-29T16:23:27.463Z,100468.06
2022-10-29T16:25:53.957Z,100468.38
2022-10-29T16:28:20.389Z,100465.38
2022-10-29T16:30:52.735Z,100466.06
2022-10-29T16:33:20.372Z,100465.53
2022-10-29T16:35:46.910Z,100472.22
2022-10-29T16:38:13.429Z,100469.50
2022-10-29T16:40:39.890Z,100469.47
2022-10-29T16:43:06.357Z,100468.63
2022-10-29T16:45:32.798Z,100465.88
2022-10-29T16:48:07.366Z,100465.59
2022-10-29T16:50:35.168Z,100462.31
2022-10-29T16:53:14.036Z,100465.91
2022-10-29T16:55:41.677Z,100460.69
2022-10-29T16:58:16.123Z,100459.91
2022-10-29T17:00:42.808Z,100469.59
2022-10-29T17:03:12.366Z,100451.72
2022-10-29T17:05:41.086Z,100458.56
2022-10-29T17:08:12.606Z,100460.53
2022-10-29T17:10:39.126Z,100460.31
2022-10-29T17:13:07.192Z,100459.97
2022-10-29T17:15:33.695Z,100460.84
2022-10-29T17:18:00.461Z,100457.19
2022-10-29T17:20:27.223Z,100460.28
2022-10-29T17:22:54.974Z,100463.88
2022-10-29T17:25:21.434Z,100454.75
2022-10-29T17:27:47.898Z,100457.72
2022-10-29T17:30:14.349Z,100457.50
2022-10-29T17:32:40.821Z,100462.41
2022-10-29T17:35:07.417Z,100461.84
2022-10-29T17:37:33.878Z,100462.78
2022-10-29T17:40:03.277Z,100458.25
2022-10-29T17:42:33.542Z,100459.25
2022-10-29T17:44:59.992Z,100463.16
2022-10-29T17:47:26.463Z,100471.41
2022-10-29T17:49:52.941Z,100469.31
2022-10-29T17:52:19.440Z,100469.63
2022-10-29T17:54:45.965Z,100471.25
2022-10-29T17:57:12.411Z,100464.53
2022-10-29T17:59:38.816Z,100465.44
2022-10-29T18:02:05.532Z,100471.19
2022-10-29T18:04:32.105Z,100472.63
2022-10-29T18:06:58.785Z,100469.91
2022-10-29T18:09:25.404Z,100475.28
2022-10-29T18:11:51.919Z,100476.34
2022-10-29T18:14:18.467Z,100475.34
2022-10-29T18:16:45.793Z,100478.72
2022-10-29T18:19:12.369Z,100485.94
2022-10-29T18:21:38.779Z,100472.38
2022-10-29T18:24:05.736Z,100473.31
2022-10-29T18:26:34.720Z,100476.16
2022-10-29T18:29:04.802Z,100470.97
2022-10-29T18:31:32.049Z,100467.94
2022-10-29T18:34:00.355Z,100464.56
2022-10-29T18:36:27.406Z,100471.72
2022-10-29T18:38:56.098Z,100473.22
2022-10-29T18:41:23.390Z,100472.22
2022-10-29T18:43:50.429Z,100469.25
2022-10-29T18:46:18.062Z,100475.66
2022-10-29T18:48:46.748Z,100478.22
2022-10-29T18:51:18.962Z,100472.16
2022-10-29T18:53:45.724Z,100474.97
2022-10-29T18:56:17.809Z,100473.97
2022-10-29T18:58:44.675Z,100469.16
2022-10-29T19:01:17.890Z,100472.63
2022-10-29T19:03:50.100Z,100466.19
2022-10-29T19:06:16.840Z,100468.94
2022-10-29T19:08:44.212Z,100463.72
2022-10-29T19:11:13.383Z,100465.69
2022-10-29T19:13:40.369Z,100470.00
2022-10-29T19:16:09.574Z,100466.81
2022-10-29T19:18:38.030Z,100465.94
2022-10-29T19:21:06.919Z,100466.16
2022-10-29T19:23:33.991Z,100464.75
2022-10-29T19:26:08.958Z,100463.88
2022-10-29T19:28:36.463Z,100466.06
2022-10-29T19:31:08.562Z,100464.09
2022-10-29T19:33:35.365Z,100456.72
2022-10-29T19:36:02.185Z,100456.19
2022-10-29T19:38:28.830Z,100456.69
2022-10-29T19:40:56.946Z,100466.09
2022-10-29T19:43:24.496Z,100458.13
2022-10-29T19:45:51.335Z,100451.75
2022-10-29T19:48:18.984Z,100456.19
2022-10-29T19:50:46.323Z,100457.25
2022-10-29T19:53:12.807Z,100460.81
2022-10-29T19:55:40.405Z,100457.50
2022-10-29T19:58:07.387Z,100460.50
2022-10-29T20:00:34.036Z,100457.16
2022-10-29T20:03:00.852Z,100460.69
2022-10-29T20:05:27.380Z,100461.72
2022-10-29T20:07:53.964Z,100463.50
2022-10-29T20:10:20.492Z,100469.09
2022-10-29T20:12:46.921Z,100466.44
2022-10-29T20:15:13.402Z,100468.72
2022-10-29T20:17:39.873Z,100470.00
2022-10-29T20:20:06.984Z,100463.78
2022-10-29T20:22:33.459Z,100469.47
2022-10-29T20:24:59.933Z,100468.63
2022-10-29T20:27:26.349Z,100471.34
2022-10-29T20:29:52.875Z,100467.31
2022-10-29T20:32:19.302Z,100470.59
2022-10-29T20:34:45.723Z,100462.53
2022-10-29T20:37:12.145Z,100465.81
2022-10-29T20:39:38.546Z,100466.72
2022-10-29T20:42:05.055Z,100465.00
2022-10-29T20:44:31.478Z,100461.03
2022-10-29T20:46:57.973Z,100456.34
2022-10-29T20:49:24.503Z,100461.00
2022-10-29T20:51:50.937Z,100457.47
2022-10-29T20:54:17.439Z,100456.19
2022-10-29T20:56:43.914Z,100467.19
2022-10-29T20:59:10.400Z,100457.53
2022-10-29T21:01:36.937Z,100473.31
2022-10-29T21:04:03.533Z,100465.06
2022-10-29T21:06:30.047Z,100466.22
2022-10-29T21:08:56.539Z,100470.28
2022-10-29T21:11:23.927Z,100468.47
2022-10-29T21:13:50.529Z,100459.03
2022-10-29T21:16:19.577Z,100456.66
2022-10-29T21:18:48.196Z,100462.91
2022-10-29T21:21:15.621Z,100462.34
2022-10-29T21:23:42.122Z,100460.69
2022-10-29T21:26:13.982Z,100463.38
2022-10-29T21:28:40.444Z,100461.91
2022-10-29T21:31:07.079Z,100458.38
2022-10-29T21:33:33.704Z,100459.25
2022-10-29T21:36:00.682Z,100460.69
2022-10-29T21:38:28.268Z,100461.56
2022-10-29T21:40:55.329Z,100446.44
2022-10-29T21:43:22.053Z,100453.72
2022-10-29T21:45:50.556Z,100452.00
2022-10-29T21:48:17.408Z,100451.84
2022-10-29T21:50:44.112Z,100450.91
2022-10-29T21:53:10.816Z,100448.34
2022-10-29T21:55:37.286Z,100445.75
2022-10-29T21:58:03.938Z,100441.94
